Time;durP1;ratioP1;P1;durP2;ratioP2;P2;SDS_P1;SDS_P2;PMS_P1;PMS_P2;Temp;Humidity;BMP_temperature;BMP_pressure;BME280_temperature;BME280_humidity;BME280_pressure;Samples;Min_cycle;Max_cycle;Signal;HPM_P1;HPM_P2
2022/03/07 00:01:32;;;;;;;;;;;;;;;;;;4203920;28;1909;-58
2022/03/07 00:03:52;;;;;;;;;;;;;;;;;;4203791;28;903;-58
2022/03/07 00:06:13;;;;;;;;;;;;;;;;;;4211671;28;1116;-58
2022/03/07 00:08:34;;;;;;;;;;;;;;;;;;4220671;28;942;-58
2022/03/07 00:10:55;;;;;;;;;;;;;;;;;;4220330;28;844;-58
2022/03/07 00:13:16;;;;;;;;;;;;;;;;;;4220605;28;977;-58
2022/03/07 00:15:36;;;;;;;;;;;;;;;;;;4220441;28;808;-59
2022/03/07 00:17:57;;;;;;;;;;;;;;;;;;4220482;28;826;-59
2022/03/07 00:20:19;;;;;;;;;;;;;;;;;;4220084;28;922;-58
2022/03/07 00:22:56;;;;;;;;;;;;;;;;;;4219584;28;1902;-58
2022/03/07 00:25:17;;;;;;;;;;;;;;;;;;4220069;28;706;-58
2022/03/07 00:27:37;;;;;;;;;;;;;;;;;;4220622;28;900;-58
2022/03/07 00:29:58;;;;;;;;;;;;;;;;;;4218850;28;1034;-59
2022/03/07 00:32:19;;;;;;;;;;;;;;;;;;4220051;28;1025;-58
2022/03/07 00:34:39;;;;;;;;;;;;;;;;;;4219365;28;1035;-58
2022/03/07 00:37:00;;;;;;;;;;;;;;;;;;4219452;28;844;-59
2022/03/07 00:39:21;;;;;;;;;;;;;;;;;;4219611;28;1335;-58
2022/03/07 00:41:42;;;;;;;;;;;;;;;;;;4219829;28;1905;-60
2022/03/07 00:44:03;;;;;;;;;;;;;;;;;;4220040;28;1026;-59
2022/03/07 00:46:23;;;;;;;;;;;;;;;;;;4219886;28;1121;-58
2022/03/07 00:48:44;;;;;;;;;;;;;;;;;;4204565;28;1053;-59
2022/03/07 00:51:05;;;;;;;;;;;;;;;;;;4204676;28;966;-58
2022/03/07 00:53:25;;;;;;;;;;;;;;;;;;4220109;28;769;-58
2022/03/07 00:55:46;;;;;;;;;;;;;;;;;;4218944;28;952;-58
2022/03/07 00:58:07;;;;;;;;;;;;;;;;;;4219144;28;838;-58
2022/03/07 01:00:28;;;;;;;;;;;;;;;;;;4219976;28;849;-58
2022/03/07 01:02:48;;;;;;;;;;;;;;;;;;4218603;28;1986;-58
2022/03/07 01:05:09;;;;;;;;;;;;;;;;;;4218753;28;908;-58
2022/03/07 01:07:30;;;;;;;;;;;;;;;;;;4219977;28;821;-58
2022/03/07 01:09:50;;;;;;;;;;;;;;;;;;4219548;28;958;-58
2022/03/07 01:12:11;;;;;;;;;;;;;;;;;;4218604;28;1046;-58
2022/03/07 01:14:32;;;;;;;;;;;;;;;;;;4219957;28;912;-58
2022/03/07 01:16:53;;;;;;;;;;;;;;;;;;4219957;28;1120;-58
2022/03/07 01:19:14;;;;;;;;;;;;;;;;;;4219548;28;829;-58
2022/03/07 01:21:34;;;;;;;;;;;;;;;;;;4219613;28;1905;-58
2022/03/07 01:23:56;;;;;;;;;;;;;;;;;;4218227;28;879;-59
2022/03/07 01:26:16;;;;;;;;;;;;;;;;;;4218623;28;876;-58
2022/03/07 01:28:37;;;;;;;;;;;;;;;;;;4219838;28;774;-58
2022/03/07 01:30:58;;;;;;;;;;;;;;;;;;4219311;28;948;-59
2022/03/07 01:33:19;;;;;;;;;;;;;;;;;;4219313;28;892;-58
2022/03/07 01:35:40;;;;;;;;;;;;;;;;;;4217872;28;1553;-58
2022/03/07 01:38:01;;;;;;;;;;;;;;;;;;4218220;28;1772;-59
2022/03/07 01:40:21;;;;;;;;;;;;;;;;;;4222252;28;1665;-58
2022/03/07 01:42:42;;;;;;;;;;;;;;;;;;4222590;28;1985;-58
2022/03/07 01:45:03;;;;;;;;;;;;;;;;;;4222288;28;966;-58
2022/03/07 01:47:25;;;;;;;;;;;;;;;;;;4222791;28;886;-58
2022/03/07 01:49:46;;;;;;;;;;;;;;;;;;4221391;28;959;-58
2022/03/07 01:52:07;;;;;;;;;;;;;;;;;;4218347;28;1721;-58
2022/03/07 01:54:27;;;;;;;;;;;;;;;;;;4216589;28;1515;-58
2022/03/07 01:56:48;;;;;;;;;;;;;;;;;;4218697;28;1049;-60
2022/03/07 01:59:11;;;;;;;;;;;;;;;;;;4203904;28;1052;-58
2022/03/07 02:04:17;;;;;;;;;;;;;;;;;;4189469;28;1143;-59
2022/03/07 02:06:39;;;;;;;;;;;;;;;;;;4204654;28;860;-59
2022/03/07 02:09:01;;;;;;;;;;;;;;;;;;4203872;28;962;-58
2022/03/07 02:11:28;;;;;;;;;;;;;;;;;;4189623;28;1212;-58
2022/03/07 02:13:50;;;;;;;;;;;;;;;;;;4204502;28;1052;-59
2022/03/07 02:16:12;;;;;;;;;;;;;;;;;;4189005;28;968;-59
2022/03/07 02:18:33;;;;;;;;;;;;;;;;;;4204387;28;867;-58
2022/03/07 02:21:05;;;;;;;;;;;;;;;;;;4188840;28;1015;-59
2022/03/07 02:23:25;;;;;;;;;;;;;;;;;;4203159;28;1979;-58
2022/03/07 02:25:47;;;;;;;;;;;;;;;;;;4203399;28;1086;-58
2022/03/07 02:28:08;;;;;;;;;;;;;;;;;;4203591;28;1031;-58
2022/03/07 02:30:29;;;;;;;;;;;;;;;;;;4189669;28;966;-58
2022/03/07 02:32:49;;;;;;;;;;;;;;;;;;4204740;28;891;-58
2022/03/07 02:35:10;;;;;;;;;;;;;;;;;;4189167;28;918;-58
2022/03/07 02:37:33;;;;;;;;;;;;;;;;;;4204707;28;1012;-58
2022/03/07 02:39:53;;;;;;;;;;;;;;;;;;4203802;28;1330;-58
2022/03/07 02:42:14;;;;;;;;;;;;;;;;;;4203435;28;1909;-59
2022/03/07 02:44:36;;;;;;;;;;;;;;;;;;4204322;28;877;-59
2022/03/07 02:46:56;;;;;;;;;;;;;;;;;;4203330;28;949;-58
2022/03/07 02:49:17;;;;;;;;;;;;;;;;;;4204480;28;940;-58
2022/03/07 02:51:38;;;;;;;;;;;;;;;;;;4189040;28;1142;-58
2022/03/07 02:53:59;;;;;;;;;;;;;;;;;;4203614;28;1290;-58
2022/03/07 02:56:20;;;;;;;;;;;;;;;;;;4204029;28;956;-58
2022/03/07 02:58:40;;;;;;;;;;;;;;;;;;4203520;28;1140;-58
2022/03/07 03:01:01;;;;;;;;;;;;;;;;;;4204493;28;1148;-58
2022/03/07 03:03:22;;;;;;;;;;;;;;;;;;4204282;28;1933;-58
2022/03/07 03:05:43;;;;;;;;;;;;;;;;;;4203306;28;1124;-59
2022/03/07 03:08:04;;;;;;;;;;;;;;;;;;4188798;28;1011;-58
2022/03/07 03:10:24;;;;;;;;;;;;;;;;;;4204236;28;887;-58
2022/03/07 03:12:45;;;;;;;;;;;;;;;;;;4203978;28;1010;-59
2022/03/07 03:15:06;;;;;;;;;;;;;;;;;;4203982;28;951;-58
2022/03/07 03:17:26;;;;;;;;;;;;;;;;;;4204211;28;987;-58
2022/03/07 03:19:47;;;;;;;;;;;;;;;;;;4203859;28;1167;-58
2022/03/07 03:22:08;;;;;;;;;;;;;;;;;;4203943;28;981;-58
2022/03/07 03:24:28;;;;;;;;;;;;;;;;;;4204145;28;922;-59
2022/03/07 03:26:49;;;;;;;;;;;;;;;;;;4204308;28;867;-59
2022/03/07 03:29:10;;;;;;;;;;;;;;;;;;4204161;28;1034;-58
2022/03/07 03:31:31;;;;;;;;;;;;;;;;;;4204219;28;1321;-59
2022/03/07 03:33:53;;;;;;;;;;;;;;;;;;4204346;28;921;-58
2022/03/07 03:36:13;;;;;;;;;;;;;;;;;;4203640;28;990;-58
2022/03/07 03:38:34;;;;;;;;;;;;;;;;;;4204095;28;844;-58
2022/03/07 03:40:55;;;;;;;;;;;;;;;;;;4204085;28;837;-58
2022/03/07 03:43:16;;;;;;;;;;;;;;;;;;4203521;28;1901;-58
2022/03/07 03:45:37;;;;;;;;;;;;;;;;;;4203896;28;1013;-58
2022/03/07 03:47:58;;;;;;;;;;;;;;;;;;4203872;28;811;-59
2022/03/07 03:50:18;;;;;;;;;;;;;;;;;;4203750;28;787;-59
2022/03/07 03:52:39;;;;;;;;;;;;;;;;;;4204054;28;967;-59
2022/03/07 03:55:02;;;;;;;;;;;;;;;;;;4204057;28;1162;-59
2022/03/07 03:57:22;;;;;;;;;;;;;;;;;;4203863;28;982;-59
2022/03/07 03:59:43;;;;;;;;;;;;;;;;;;4203287;28;927;-58
2022/03/07 04:02:04;;;;;;;;;;;;;;;;;;4204006;28;1026;-58
2022/03/07 04:04:25;;;;;;;;;;;;;;;;;;4203722;28;1917;-59
2022/03/07 04:06:45;;;;;;;;;;;;;;;;;;4203273;28;1025;-59
2022/03/07 04:09:06;;;;;;;;;;;;;;;;;;4203710;28;918;-58
2022/03/07 04:11:26;;;;;;;;;;;;;;;;;;4203633;28;831;-59
2022/03/07 04:13:47;;;;;;;;;;;;;;;;;;4203678;28;826;-58
2022/03/07 04:16:08;;;;;;;;;;;;;;;;;;4203584;28;1003;-59
2022/03/07 04:18:29;;;;;;;;;;;;;;;;;;4203784;28;837;-59
2022/03/07 04:20:49;;;;;;;;;;;;;;;;;;4203515;28;870;-59
2022/03/07 04:23:10;;;;;;;;;;;;;;;;;;4203411;28;1909;-58
2022/03/07 04:25:33;;;;;;;;;;;;;;;;;;4202570;28;860;-58
2022/03/07 04:27:54;;;;;;;;;;;;;;;;;;4202335;28;948;-58
2022/03/07 04:30:15;;;;;;;;;;;;;;;;;;4202108;28;872;-59
2022/03/07 04:32:36;;;;;;;;;;;;;;;;;;4203536;28;839;-59
2022/03/07 04:34:57;;;;;;;;;;;;;;;;;;4203651;28;1013;-58
2022/03/07 04:37:18;;;;;;;;;;;;;;;;;;4203404;28;840;-59
2022/03/07 04:39:38;;;;;;;;;;;;;;;;;;4202656;28;1064;-60
2022/03/07 04:41:59;;;;;;;;;;;;;;;;;;4203206;28;786;-58
2022/03/07 04:44:19;;;;;;;;;;;;;;;;;;4203242;28;1905;-58
2022/03/07 04:46:40;;;;;;;;;;;;;;;;;;4203406;28;897;-58
2022/03/07 04:49:01;;;;;;;;;;;;;;;;;;4203650;28;968;-59
2022/03/07 04:51:21;;;;;;;;;;;;;;;;;;4203186;28;923;-59
2022/03/07 04:53:42;;;;;;;;;;;;;;;;;;4203251;28;973;-58
2022/03/07 04:56:04;;;;;;;;;;;;;;;;;;4203099;28;837;-59
2022/03/07 04:58:24;;;;;;;;;;;;;;;;;;4203143;28;894;-59
2022/03/07 05:00:45;;;;;;;;;;;;;;;;;;4203127;28;989;-58
2022/03/07 05:03:06;;;;;;;;;;;;;;;;;;4202885;28;1913;-59
2022/03/07 05:05:26;;;;;;;;;;;;;;;;;;4202933;28;949;-59
2022/03/07 05:07:49;;;;;;;;;;;;;;;;;;4202779;28;958;-59
2022/03/07 05:10:10;;;;;;;;;;;;;;;;;;4202814;28;1019;-59
2022/03/07 05:12:31;;;;;;;;;;;;;;;;;;4205366;28;1016;-58
2022/03/07 05:14:51;;;;;;;;;;;;;;;;;;4205786;28;775;-58
2022/03/07 05:17:12;;;;;;;;;;;;;;;;;;4205920;28;850;-60
2022/03/07 05:19:32;;;;;;;;;;;;;;;;;;4206013;28;849;-61
2022/03/07 05:21:53;;;;;;;;;;;;;;;;;;4204901;28;838;-60
2022/03/07 05:24:13;;;;;;;;;;;;;;;;;;4205646;28;1909;-60
2022/03/07 05:26:33;;;;;;;;;;;;;;;;;;4205024;28;1196;-60
2022/03/07 05:28:54;;;;;;;;;;;;;;;;;;4206541;28;945;-58
2022/03/07 05:31:15;;;;;;;;;;;;;;;;;;4205809;28;862;-60
2022/03/07 05:33:36;;;;;;;;;;;;;;;;;;4205847;28;908;-59
2022/03/07 05:35:56;;;;;;;;;;;;;;;;;;4205920;28;896;-59
2022/03/07 05:38:17;;;;;;;;;;;;;;;;;;4205657;28;952;-60
2022/03/07 05:40:37;;;;;;;;;;;;;;;;;;4199300;28;1144;-59
2022/03/07 05:42:58;;;;;;;;;;;;;;;;;;4172492;28;1066;-59
2022/03/07 05:45:19;;;;;;;;;;;;;;;;;;4172546;28;944;-60
2022/03/07 05:47:39;;;;;;;;;;;;;;;;;;4171318;28;1084;-59
2022/03/07 05:50:00;;;;;;;;;;;;;;;;;;4172459;28;846;-59
2022/03/07 05:52:21;;;;;;;;;;;;;;;;;;4172281;28;945;-59
2022/03/07 05:54:41;;;;;;;;;;;;;;;;;;4172525;28;1247;-59
2022/03/07 05:57:02;;;;;;;;;;;;;;;;;;4172187;28;1120;-59
2022/03/07 05:59:22;;;;;;;;;;;;;;;;;;4172458;28;1213;-59
2022/03/07 06:01:43;;;;;;;;;;;;;;;;;;4172424;28;883;-59
2022/03/07 06:04:04;;;;;;;;;;;;;;;;;;4171779;28;1989;-59
2022/03/07 06:06:24;;;;;;;;;;;;;;;;;;4172080;28;860;-60
2022/03/07 06:08:45;;;;;;;;;;;;;;;;;;4172041;28;889;-59
2022/03/07 06:11:06;;;;;;;;;;;;;;;;;;4172058;28;939;-59
2022/03/07 06:13:26;;;;;;;;;;;;;;;;;;4172012;28;1194;-61
2022/03/07 06:15:47;;;;;;;;;;;;;;;;;;4171981;28;951;-59
2022/03/07 06:18:08;;;;;;;;;;;;;;;;;;4172044;28;794;-60
2022/03/07 06:20:29;;;;;;;;;;;;;;;;;;4171782;28;1109;-59
2022/03/07 06:22:49;;;;;;;;;;;;;;;;;;4171112;28;1013;-59
2022/03/07 06:25:10;;;;;;;;;;;;;;;;;;4171687;28;1910;-59
2022/03/07 06:27:31;;;;;;;;;;;;;;;;;;4170474;28;941;-59
2022/03/07 06:29:51;;;;;;;;;;;;;;;;;;4171814;28;1132;-59
2022/03/07 06:32:12;;;;;;;;;;;;;;;;;;4170700;28;827;-60
2022/03/07 06:34:33;;;;;;;;;;;;;;;;;;4171618;28;1023;-59
2022/03/07 06:36:54;;;;;;;;;;;;;;;;;;4171232;28;881;-59
2022/03/07 06:39:15;;;;;;;;;;;;;;;;;;4181570;28;1193;-59
2022/03/07 06:41:35;;;;;;;;;;;;;;;;;;4204613;28;1021;-59
2022/03/07 06:43:56;;;;;;;;;;;;;;;;;;4189404;28;1910;-59
2022/03/07 06:46:17;;;;;;;;;;;;;;;;;;4204433;28;883;-59
2022/03/07 06:48:37;;;;;;;;;;;;;;;;;;4203448;28;837;-59
2022/03/07 06:50:58;;;;;;;;;;;;;;;;;;4204579;28;936;-59
2022/03/07 06:53:18;;;;;;;;;;;;;;;;;;4204534;28;847;-59
2022/03/07 06:55:39;;;;;;;;;;;;;;;;;;4204408;28;845;-59
2022/03/07 06:58:00;;;;;;;;;;;;;;;;;;4204456;28;987;-60
2022/03/07 07:00:20;;;;;;;;;;;;;;;;;;4204711;28;847;-59
2022/03/07 07:02:41;;;;;;;;;;;;;;;;;;4204094;28;950;-59
2022/03/07 07:05:02;;;;;;;;;;;;;;;;;;4204241;28;1910;-60
2022/03/07 07:07:23;;;;;;;;;;;;;;;;;;4204140;28;869;-59
2022/03/07 07:09:43;;;;;;;;;;;;;;;;;;4204017;28;1036;-59
2022/03/07 07:12:04;;;;;;;;;;;;;;;;;;4204138;28;1040;-60
2022/03/07 07:14:25;;;;;;;;;;;;;;;;;;4203822;28;1135;-59
2022/03/07 07:16:46;;;;;;;;;;;;;;;;;;4204391;28;766;-59
2022/03/07 07:19:07;;;;;;;;;;;;;;;;;;4204498;28;802;-59
2022/03/07 07:21:28;;;;;;;;;;;;;;;;;;4204326;28;1009;-59
2022/03/07 07:23:49;;;;;;;;;;;;;;;;;;4204364;28;1213;-59
2022/03/07 07:26:10;;;;;;;;;;;;;;;;;;4204421;28;872;-59
2022/03/07 07:28:31;;;;;;;;;;;;;;;;;;4203850;28;1008;-59
2022/03/07 07:30:52;;;;;;;;;;;;;;;;;;4204110;28;923;-59
2022/03/07 07:33:12;;;;;;;;;;;;;;;;;;4203509;28;791;-59
2022/03/07 07:35:34;;;;;;;;;;;;;;;;;;4188576;28;991;-59
2022/03/07 07:37:54;;;;;;;;;;;;;;;;;;4203937;28;1010;-59
2022/03/07 07:40:15;;;;;;;;;;;;;;;;;;4202546;28;1265;-60
2022/03/07 07:42:35;;;;;;;;;;;;;;;;;;4204352;28;1031;-59
2022/03/07 07:45:01;;;;;;;;;;;;;;;;;;4202482;28;1914;-59
2022/03/07 07:47:22;;;;;;;;;;;;;;;;;;4203956;28;1003;-59
2022/03/07 07:49:44;;;;;;;;;;;;;;;;;;4203840;28;1128;-60
2022/03/07 07:52:05;;;;;;;;;;;;;;;;;;4203730;28;979;-59
2022/03/07 07:54:44;;;;;;;;;;;;;;;;;;4203798;28;963;-59
2022/03/07 07:57:07;;;;;;;;;;;;;;;;;;4203842;28;834;-59
2022/03/07 07:59:27;;;;;;;;;;;;;;;;;;4206443;28;1790;-59
2022/03/07 08:01:48;;;;;;;;;;;;;;;;;;4214498;28;1348;-59
2022/03/07 08:04:09;;;;;;;;;;;;;;;;;;4219378;28;1982;-60
2022/03/07 08:06:30;;;;;;;;;;;;;;;;;;4207319;28;1307;-59
2022/03/07 08:08:50;;;;;;;;;;;;;;;;;;4203269;28;1433;-59
2022/03/07 08:11:11;;;;;;;;;;;;;;;;;;4203198;28;857;-59
2022/03/07 08:13:32;;;;;;;;;;;;;;;;;;4205415;28;1300;-59
2022/03/07 08:15:52;;;;;;;;;;;;;;;;;;4219539;28;1038;-59
2022/03/07 08:18:13;;;;;;;;;;;;;;;;;;4208625;28;1496;-60
2022/03/07 08:20:34;;;;;;;;;;;;;;;;;;4220039;28;838;-59
2022/03/07 08:22:55;;;;;;;;;;;;;;;;;;4219813;28;818;-59
2022/03/07 08:25:16;;;;;;;;;;;;;;;;;;4219715;28;1996;-59
2022/03/07 08:27:36;;;;;;;;;;;;;;;;;;4219696;28;1582;-59
2022/03/07 08:29:57;;;;;;;;;;;;;;;;;;4219596;28;1505;-60
2022/03/07 08:32:18;;;;;;;;;;;;;;;;;;4219884;28;795;-59
2022/03/07 08:34:38;;;;;;;;;;;;;;;;;;4219893;28;889;-59
2022/03/07 08:36:59;;;;;;;;;;;;;;;;;;4219609;28;1012;-59
2022/03/07 08:39:19;;;;;;;;;;;;;;;;;;4204467;28;1059;-59
2022/03/07 08:41:40;;;;;;;;;;;;;;;;;;4219656;28;837;-59
2022/03/07 08:44:01;;;;;;;;;;;;;;;;;;4219487;28;1057;-59
2022/03/07 08:46:22;;;;;;;;;;;;;;;;;;4222286;28;1977;-59
2022/03/07 08:48:42;;;;;;;;;;;;;;;;;;4221743;28;1009;-59
2022/03/07 08:51:03;;;;;;;;;;;;;;;;;;4222600;28;798;-59
2022/03/07 08:53:24;;;;;;;;;;;;;;;;;;4220801;28;1453;-61
2022/03/07 08:55:44;;;;;;;;;;;;;;;;;;4205113;28;950;-59
2022/03/07 08:58:05;;;;;;;;;;;;;;;;;;4205419;28;920;-59
2022/03/07 09:00:26;;;;;;;;;;;;;;;;;;4205353;28;826;-59
2022/03/07 09:02:47;;;;;;;;;;;;;;;;;;4205332;28;1128;-59
2022/03/07 09:05:08;;;;;;;;;;;;;;;;;;4190408;28;1909;-59
2022/03/07 09:07:28;;;;;;;;;;;;;;;;;;4205564;28;1021;-59
2022/03/07 09:09:49;;;;;;;;;;;;;;;;;;4205515;28;1035;-59
2022/03/07 09:12:10;;;;;;;;;;;;;;;;;;4206686;28;1203;-60
2022/03/07 09:14:31;;;;;;;;;;;;;;;;;;4208640;28;1126;-59
2022/03/07 09:16:51;;;;;;;;;;;;;;;;;;4205349;28;1153;-59
2022/03/07 09:19:12;;;;;;;;;;;;;;;;;;4205596;28;1161;-59
2022/03/07 09:21:34;;;;;;;;;;;;;;;;;;4206180;28;1209;-59
2022/03/07 09:23:54;;;;;;;;;;;;;;;;;;4221828;28;929;-59
2022/03/07 09:26:15;;;;;;;;;;;;;;;;;;4221939;28;2024;-59
2022/03/07 09:28:37;;;;;;;;;;;;;;;;;;4221851;28;1112;-59
2022/03/07 09:30:57;;;;;;;;;;;;;;;;;;4221938;28;837;-59
2022/03/07 09:33:18;;;;;;;;;;;;;;;;;;4222374;28;901;-59
2022/03/07 09:35:39;;;;;;;;;;;;;;;;;;4221362;28;1065;-59
2022/03/07 09:37:59;;;;;;;;;;;;;;;;;;4222110;28;965;-59
2022/03/07 09:40:20;;;;;;;;;;;;;;;;;;4222352;28;1060;-59
2022/03/07 09:42:41;;;;;;;;;;;;;;;;;;4222300;28;840;-59
2022/03/07 09:45:02;;;;;;;;;;;;;;;;;;4221160;28;1909;-59
2022/03/07 09:47:22;;;;;;;;;;;;;;;;;;4219909;28;826;-59
2022/03/07 09:49:43;;;;;;;;;;;;;;;;;;4221510;28;1059;-59
2022/03/07 09:52:04;;;;;;;;;;;;;;;;;;4220932;28;1149;-59
2022/03/07 09:54:24;;;;;;;;;;;;;;;;;;4210461;28;1475;-60
2022/03/07 09:56:45;;;;;;;;;;;;;;;;;;4203478;28;997;-59
2022/03/07 09:59:07;;;;;;;;;;;;;;;;;;4211522;28;1330;-59
2022/03/07 10:01:28;;;;;;;;;;;;;;;;;;4221515;28;906;-61
2022/03/07 10:03:49;;;;;;;;;;;;;;;;;;4222293;28;822;-59
2022/03/07 10:06:09;;;;;;;;;;;;;;;;;;4221715;28;1988;-60
2022/03/07 10:08:30;;;;;;;;;;;;;;;;;;4221789;28;823;-59
2022/03/07 10:10:52;;;;;;;;;;;;;;;;;;4220951;28;1056;-59
2022/03/07 10:13:13;;;;;;;;;;;;;;;;;;4221261;28;1065;-59
2022/03/07 10:15:33;;;;;;;;;;;;;;;;;;4204718;28;898;-59
2022/03/07 10:17:53;;;;;;;;;;;;;;;;;;4204715;28;986;-59
2022/03/07 10:20:15;;;;;;;;;;;;;;;;;;4203741;28;947;-59
2022/03/07 10:22:35;;;;;;;;;;;;;;;;;;4204910;28;814;-59
2022/03/07 10:24:56;;;;;;;;;;;;;;;;;;4204892;28;861;-59
2022/03/07 10:27:17;;;;;;;;;;;;;;;;;;4203310;28;1018;-59
2022/03/07 10:29:37;;;;;;;;;;;;;;;;;;4215477;28;1434;-59
2022/03/07 10:31:58;;;;;;;;;;;;;;;;;;4221378;28;1186;-59
2022/03/07 10:34:19;;;;;;;;;;;;;;;;;;4206124;28;862;-59
2022/03/07 10:36:39;;;;;;;;;;;;;;;;;;4220556;28;1052;-60
2022/03/07 10:39:00;;;;;;;;;;;;;;;;;;4221358;28;1141;-59
2022/03/07 10:41:20;;;;;;;;;;;;;;;;;;4221315;28;1011;-59
2022/03/07 10:43:41;;;;;;;;;;;;;;;;;;4220868;28;1037;-60
2022/03/07 10:46:01;;;;;;;;;;;;;;;;;;4205618;28;1914;-59
2022/03/07 10:48:22;;;;;;;;;;;;;;;;;;4204401;28;839;-59
2022/03/07 10:50:42;;;;;;;;;;;;;;;;;;4204369;28;883;-59
2022/03/07 10:53:03;;;;;;;;;;;;;;;;;;4189086;28;809;-59
2022/03/07 10:55:24;;;;;;;;;;;;;;;;;;4204007;28;1009;-59
2022/03/07 10:57:44;;;;;;;;;;;;;;;;;;4204223;28;1007;-59
2022/03/07 11:00:05;;;;;;;;;;;;;;;;;;4219824;28;1293;-59
2022/03/07 11:02:26;;;;;;;;;;;;;;;;;;4221262;28;935;-59
2022/03/07 11:04:48;;;;;;;;;;;;;;;;;;4220613;28;1140;-59
2022/03/07 11:07:09;;;;;;;;;;;;;;;;;;4220965;28;1909;-59
2022/03/07 11:09:29;;;;;;;;;;;;;;;;;;4220600;28;801;-59
2022/03/07 11:11:50;;;;;;;;;;;;;;;;;;4220937;28;820;-59
2022/03/07 11:14:11;;;;;;;;;;;;;;;;;;4220593;28;1048;-59
2022/03/07 11:16:31;;;;;;;;;;;;;;;;;;4220640;28;838;-59
2022/03/07 11:18:52;;;;;;;;;;;;;;;;;;4220752;28;891;-60
2022/03/07 11:21:12;;;;;;;;;;;;;;;;;;4220311;28;1162;-59
2022/03/07 11:23:33;;;;;;;;;;;;;;;;;;4220545;28;942;-59
2022/03/07 11:25:54;;;;;;;;;;;;;;;;;;4220133;28;1999;-59
2022/03/07 11:28:15;;;;;;;;;;;;;;;;;;4220458;28;1079;-59
2022/03/07 11:30:36;;;;;;;;;;;;;;;;;;4220278;28;919;-59
2022/03/07 11:32:56;;;;;;;;;;;;;;;;;;4204590;28;979;-59
2022/03/07 11:35:16;;;;;;;;;;;;;;;;;;4220551;28;884;-59
2022/03/07 11:37:37;;;;;;;;;;;;;;;;;;4220767;28;808;-59
2022/03/07 11:39:58;;;;;;;;;;;;;;;;;;4220103;28;1385;-59
2022/03/07 11:42:19;;;;;;;;;;;;;;;;;;4220328;28;903;-59
2022/03/07 11:44:40;;;;;;;;;;;;;;;;;;4204859;28;1309;-59
2022/03/07 11:47:01;;;;;;;;;;;;;;;;;;4220719;28;1909;-59
2022/03/07 11:49:21;;;;;;;;;;;;;;;;;;4220479;28;995;-59
2022/03/07 11:51:42;;;;;;;;;;;;;;;;;;4220720;28;921;-59
2022/03/07 11:54:03;;;;;;;;;;;;;;;;;;4213145;28;1486;-59
2022/03/07 11:56:23;;;;;;;;;;;;;;;;;;4203590;28;944;-59
2022/03/07 11:58:44;;;;;;;;;;;;;;;;;;4207636;28;1157;-59
2022/03/07 12:01:05;;;;;;;;;;;;;;;;;;4220249;28;1005;-60
2022/03/07 12:03:26;;;;;;;;;;;;;;;;;;4220296;28;944;-59
2022/03/07 12:05:47;;;;;;;;;;;;;;;;;;4220104;28;1930;-59
2022/03/07 12:08:08;;;;;;;;;;;;;;;;;;4220505;28;839;-59
2022/03/07 12:10:28;;;;;;;;;;;;;;;;;;4219860;28;1023;-59
2022/03/07 12:12:49;;;;;;;;;;;;;;;;;;4219563;28;1029;-59
2022/03/07 12:15:09;;;;;;;;;;;;;;;;;;4219546;28;1366;-59
2022/03/07 12:17:30;;;;;;;;;;;;;;;;;;4219855;28;878;-59
2022/03/07 12:19:50;;;;;;;;;;;;;;;;;;4219242;28;1560;-59
2022/03/07 12:22:11;;;;;;;;;;;;;;;;;;4219787;28;1035;-59
2022/03/07 12:24:32;;;;;;;;;;;;;;;;;;4219629;28;1228;-60
2022/03/07 12:26:52;;;;;;;;;;;;;;;;;;4219432;28;1906;-59
2022/03/07 12:29:13;;;;;;;;;;;;;;;;;;4219666;28;1350;-59
2022/03/07 12:31:34;;;;;;;;;;;;;;;;;;4219767;28;882;-59
2022/03/07 12:33:54;;;;;;;;;;;;;;;;;;4218782;28;968;-59
2022/03/07 12:36:15;;;;;;;;;;;;;;;;;;4219385;28;991;-59
2022/03/07 12:38:36;;;;;;;;;;;;;;;;;;4220153;28;1000;-59
2022/03/07 12:40:57;;;;;;;;;;;;;;;;;;4187189;28;1045;-60
2022/03/07 12:43:17;;;;;;;;;;;;;;;;;;4219927;28;1093;-59
2022/03/07 12:45:38;;;;;;;;;;;;;;;;;;4220072;28;857;-59
2022/03/07 12:48:01;;;;;;;;;;;;;;;;;;4219552;28;911;-59
2022/03/07 12:50:21;;;;;;;;;;;;;;;;;;4219470;28;1044;-59
2022/03/07 12:52:42;;;;;;;;;;;;;;;;;;4220029;28;1022;-59
2022/03/07 12:55:03;;;;;;;;;;;;;;;;;;4203027;28;1449;-60
2022/03/07 12:57:25;;;;;;;;;;;;;;;;;;4202816;28;946;-59
2022/03/07 12:59:46;;;;;;;;;;;;;;;;;;4215679;28;1285;-59
2022/03/07 13:02:07;;;;;;;;;;;;;;;;;;4219735;28;833;-59
2022/03/07 13:04:27;;;;;;;;;;;;;;;;;;4219799;28;860;-59
2022/03/07 13:06:49;;;;;;;;;;;;;;;;;;4219512;28;1930;-60
2022/03/07 13:09:09;;;;;;;;;;;;;;;;;;4219660;28;1119;-59
2022/03/07 13:11:30;;;;;;;;;;;;;;;;;;4219153;28;915;-60
2022/03/07 13:13:51;;;;;;;;;;;;;;;;;;4218854;28;1167;-59
2022/03/07 13:16:11;;;;;;;;;;;;;;;;;;4219149;28;986;-59
2022/03/07 13:18:32;;;;;;;;;;;;;;;;;;4219380;28;1047;-59
2022/03/07 13:20:53;;;;;;;;;;;;;;;;;;4219228;28;896;-59
2022/03/07 13:23:14;;;;;;;;;;;;;;;;;;4218941;28;1241;-59
2022/03/07 13:25:34;;;;;;;;;;;;;;;;;;4219267;28;895;-59
2022/03/07 13:27:55;;;;;;;;;;;;;;;;;;4219569;28;1905;-59
2022/03/07 13:30:16;;;;;;;;;;;;;;;;;;4204662;28;1173;-59
2022/03/07 13:32:39;;;;;;;;;;;;;;;;;;4221221;28;927;-59
2022/03/07 13:34:59;;;;;;;;;;;;;;;;;;4222602;28;947;-59
2022/03/07 13:37:20;;;;;;;;;;;;;;;;;;4222107;28;1067;-59
2022/03/07 13:39:41;;;;;;;;;;;;;;;;;;4221959;28;1313;-59
2022/03/07 13:42:01;;;;;;;;;;;;;;;;;;4221701;28;814;-59
2022/03/07 13:44:22;;;;;;;;;;;;;;;;;;4221884;28;1098;-59
2022/03/07 13:46:43;;;;;;;;;;;;;;;;;;4221742;28;1906;-59
2022/03/07 13:49:04;;;;;;;;;;;;;;;;;;4222095;28;938;-59
2022/03/07 13:51:25;;;;;;;;;;;;;;;;;;4221612;28;1138;-59
2022/03/07 13:53:46;;;;;;;;;;;;;;;;;;4217049;28;976;-59
2022/03/07 13:56:06;;;;;;;;;;;;;;;;;;4204443;28;1317;-60
2022/03/07 13:58:29;;;;;;;;;;;;;;;;;;4206955;28;1295;-59
2022/03/07 14:00:49;;;;;;;;;;;;;;;;;;4222051;28;864;-59
2022/03/07 14:03:10;;;;;;;;;;;;;;;;;;4222102;28;837;-59
2022/03/07 14:05:30;;;;;;;;;;;;;;;;;;4221512;28;971;-59
2022/03/07 14:07:53;;;;;;;;;;;;;;;;;;4221656;28;1921;-59
2022/03/07 14:10:13;;;;;;;;;;;;;;;;;;4222015;28;1008;-59
2022/03/07 14:12:34;;;;;;;;;;;;;;;;;;4221649;28;786;-59
2022/03/07 14:14:55;;;;;;;;;;;;;;;;;;4221346;28;1163;-59
2022/03/07 14:17:15;;;;;;;;;;;;;;;;;;4218815;28;1104;-59
2022/03/07 14:19:36;;;;;;;;;;;;;;;;;;4221707;28;893;-59
2022/03/07 14:21:56;;;;;;;;;;;;;;;;;;4221237;28;1027;-59
2022/03/07 14:24:17;;;;;;;;;;;;;;;;;;4220519;28;1089;-59
2022/03/07 14:26:39;;;;;;;;;;;;;;;;;;4221162;28;1988;-59
2022/03/07 14:29:03;;;;;;;;;;;;;;;;;;4221515;28;1078;-59
2022/03/07 14:31:24;;;;;;;;;;;;;;;;;;4221537;28;991;-59
2022/03/07 14:33:45;;;;;;;;;;;;;;;;;;4221516;28;1007;-59
2022/03/07 14:36:06;;;;;;;;;;;;;;;;;;4220264;28;826;-59
2022/03/07 14:38:27;;;;;;;;;;;;;;;;;;4220739;28;855;-59
2022/03/07 14:40:48;;;;;;;;;;;;;;;;;;4221020;28;865;-59
2022/03/07 14:43:09;;;;;;;;;;;;;;;;;;4220430;28;765;-59
2022/03/07 14:45:30;;;;;;;;;;;;;;;;;;4221064;28;1014;-59
2022/03/07 14:47:51;;;;;;;;;;;;;;;;;;4220908;28;1914;-59
2022/03/07 14:50:13;;;;;;;;;;;;;;;;;;4220453;28;1298;-59
2022/03/07 14:52:33;;;;;;;;;;;;;;;;;;4203182;28;818;-59
2022/03/07 14:54:54;;;;;;;;;;;;;;;;;;4214911;28;1492;-59
2022/03/07 14:57:15;;;;;;;;;;;;;;;;;;4204447;28;1025;-59
2022/03/07 14:59:35;;;;;;;;;;;;;;;;;;4214608;28;1060;-60
2022/03/07 15:01:56;;;;;;;;;;;;;;;;;;4220505;28;921;-59
2022/03/07 15:04:16;;;;;;;;;;;;;;;;;;4220307;28;818;-59
2022/03/07 15:06:38;;;;;;;;;;;;;;;;;;4218870;28;959;-59
2022/03/07 15:09:00;;;;;;;;;;;;;;;;;;4220466;28;829;-59
2022/03/07 15:11:20;;;;;;;;;;;;;;;;;;4220325;28;939;-59
2022/03/07 15:13:41;;;;;;;;;;;;;;;;;;4219382;28;1094;-59
2022/03/07 15:16:02;;;;;;;;;;;;;;;;;;4221006;28;994;-59
2022/03/07 15:18:22;;;;;;;;;;;;;;;;;;4220157;28;805;-59
2022/03/07 15:20:43;;;;;;;;;;;;;;;;;;4219908;28;1338;-59
2022/03/07 15:23:04;;;;;;;;;;;;;;;;;;4207860;28;1307;-59
2022/03/07 15:25:25;;;;;;;;;;;;;;;;;;4202699;28;978;-59
2022/03/07 15:27:45;;;;;;;;;;;;;;;;;;4203352;28;1921;-59
2022/03/07 15:30:07;;;;;;;;;;;;;;;;;;4203797;28;1113;-59
2022/03/07 15:32:28;;;;;;;;;;;;;;;;;;4220351;28;1035;-59
2022/03/07 15:34:50;;;;;;;;;;;;;;;;;;4219951;28;990;-59
2022/03/07 15:37:10;;;;;;;;;;;;;;;;;;4220077;28;867;-59
2022/03/07 15:39:31;;;;;;;;;;;;;;;;;;4217093;28;2069;-60
2022/03/07 15:41:51;;;;;;;;;;;;;;;;;;4208533;28;1724;-59
2022/03/07 15:44:12;;;;;;;;;;;;;;;;;;4219263;28;1403;-59
2022/03/07 15:46:33;;;;;;;;;;;;;;;;;;4220464;28;796;-59
2022/03/07 15:48:54;;;;;;;;;;;;;;;;;;4204274;28;1918;-59
2022/03/07 15:51:15;;;;;;;;;;;;;;;;;;4216045;28;1110;-59
2022/03/07 15:53:35;;;;;;;;;;;;;;;;;;4206700;28;1310;-59
2022/03/07 15:55:57;;;;;;;;;;;;;;;;;;4218025;28;805;-59
2022/03/07 15:58:18;;;;;;;;;;;;;;;;;;4216173;28;1072;-59
2022/03/07 16:00:39;;;;;;;;;;;;;;;;;;4201515;28;1046;-58
2022/03/07 16:03:01;;;;;;;;;;;;;;;;;;4202832;28;927;-58
2022/03/07 16:05:22;;;;;;;;;;;;;;;;;;4202540;28;1065;-59
2022/03/07 16:07:42;;;;;;;;;;;;;;;;;;4201552;28;1992;-58
2022/03/07 16:10:03;;;;;;;;;;;;;;;;;;4202821;28;1010;-58
2022/03/07 16:12:24;;;;;;;;;;;;;;;;;;4202850;28;940;-60
2022/03/07 16:14:45;;;;;;;;;;;;;;;;;;4214730;28;1273;-58
2022/03/07 16:17:06;;;;;;;;;;;;;;;;;;4219304;28;931;-59
2022/03/07 16:19:26;;;;;;;;;;;;;;;;;;4218461;28;1002;-58
2022/03/07 16:21:47;;;;;;;;;;;;;;;;;;4204544;28;1161;-58
2022/03/07 16:24:08;;;;;;;;;;;;;;;;;;4219994;28;931;-59
2022/03/07 16:26:29;;;;;;;;;;;;;;;;;;4219695;28;817;-59
2022/03/07 16:28:50;;;;;;;;;;;;;;;;;;4219575;28;1909;-59